sensor_id;sensor_type;location;lat;lon;timestamp;temperature;humidity
43810;DHT22;29440;48.208;11.162;2023-07-31T00:01:54;16.50;99.90
43810;DHT22;29440;48.208;11.162;2023-07-31T00:04:19;16.50;99.90
43810;DHT22;29440;48.208;11.162;2023-07-31T00:06:45;16.50;99.90
43810;DHT22;29440;48.208;11.162;2023-07-31T00:09:10;16.40;99.90
43810;DHT22;29440;48.208;11.162;2023-07-31T00:11:36;16.30;99.90
43810;DHT22;29440;48.208;11.162;2023-07-31T00:14:01;16.20;99.90
43810;DHT22;29440;48.208;11.162;2023-07-31T00:16:27;16.30;99.90
43810;DHT22;29440;48.208;11.162;2023-07-31T00:18:54;16.30;99.90
43810;DHT22;29440;48.208;11.162;2023-07-31T00:21:20;16.20;99.90
43810;DHT22;29440;48.208;11.162;2023-07-31T00:23:45;16.20;99.90
43810;DHT22;29440;48.208;11.162;2023-07-31T00:26:11;16.20;99.90
43810;DHT22;29440;48.208;11.162;2023-07-31T00:28:36;16.20;99.90
43810;DHT22;29440;48.208;11.162;2023-07-31T00:31:02;16.10;99.90
43810;DHT22;29440;48.208;11.162;2023-07-31T00:33:31;16.10;99.90
43810;DHT22;29440;48.208;11.162;2023-07-31T00:35:57;16.10;99.90
43810;DHT22;29440;48.208;11.162;2023-07-31T00:38:22;16.10;99.90
43810;DHT22;29440;48.208;11.162;2023-07-31T00:40:48;16.10;99.90
43810;DHT22;29440;48.208;11.162;2023-07-31T00:43:13;16.10;99.90
43810;DHT22;29440;48.208;11.162;2023-07-31T00:45:39;16.10;99.90
43810;DHT22;29440;48.208;11.162;2023-07-31T00:48:05;16.10;99.90
43810;DHT22;29440;48.208;11.162;2023-07-31T00:50:33;16.00;99.90
43810;DHT22;29440;48.208;11.162;2023-07-31T00:52:59;16.00;99.90
43810;DHT22;29440;48.208;11.162;2023-07-31T00:55:24;16.00;99.90
43810;DHT22;29440;48.208;11.162;2023-07-31T00:57:50;15.90;99.90
43810;DHT22;29440;48.208;11.162;2023-07-31T01:00:18;15.90;99.90
43810;DHT22;29440;48.208;11.162;2023-07-31T01:02:44;15.90;99.90
43810;DHT22;29440;48.208;11.162;2023-07-31T01:05:09;15.90;99.90
43810;DHT22;29440;48.208;11.162;2023-07-31T01:07:57;15.90;99.90
43810;DHT22;29440;48.208;11.162;2023-07-31T01:10:37;15.90;99.90
43810;DHT22;29440;48.208;11.162;2023-07-31T01:13:06;15.90;99.90
43810;DHT22;29440;48.208;11.162;2023-07-31T01:15:33;15.90;99.90
43810;DHT22;29440;48.208;11.162;2023-07-31T01:17:58;15.90;99.90
43810;DHT22;29440;48.208;11.162;2023-07-31T01:20:26;15.90;99.90
43810;DHT22;29440;48.208;11.162;2023-07-31T01:25:56;15.90;99.90
43810;DHT22;29440;48.208;11.162;2023-07-31T01:28:40;15.90;99.90
43810;DHT22;29440;48.208;11.162;2023-07-31T01:31:10;15.80;99.90
43810;DHT22;29440;48.208;11.162;2023-07-31T01:33:36;15.90;99.90
43810;DHT22;29440;48.208;11.162;2023-07-31T01:36:03;15.90;99.90
43810;DHT22;29440;48.208;11.162;2023-07-31T01:38:29;15.90;99.90
43810;DHT22;29440;48.208;11.162;2023-07-31T01:40:55;15.90;99.90
43810;DHT22;29440;48.208;11.162;2023-07-31T01:43:20;15.80;99.90
43810;DHT22;29440;48.208;11.162;2023-07-31T01:45:46;15.90;99.90
43810;DHT22;29440;48.208;11.162;2023-07-31T01:48:11;16.00;99.90
43810;DHT22;29440;48.208;11.162;2023-07-31T01:50:37;15.90;99.90
43810;DHT22;29440;48.208;11.162;2023-07-31T01:53:02;15.90;99.90
43810;DHT22;29440;48.208;11.162;2023-07-31T01:55:28;15.90;99.90
43810;DHT22;29440;48.208;11.162;2023-07-31T01:57:53;15.90;99.90
43810;DHT22;29440;48.208;11.162;2023-07-31T02:00:19;15.80;99.90
43810;DHT22;29440;48.208;11.162;2023-07-31T02:02:45;15.90;99.90
43810;DHT22;29440;48.208;11.162;2023-07-31T02:05:10;15.90;99.90
43810;DHT22;29440;48.208;11.162;2023-07-31T02:07:36;15.90;99.90
43810;DHT22;29440;48.208;11.162;2023-07-31T02:10:01;15.90;99.90
43810;DHT22;29440;48.208;11.162;2023-07-31T02:12:27;15.90;99.90
43810;DHT22;29440;48.208;11.162;2023-07-31T02:14:55;15.90;99.90
43810;DHT22;29440;48.208;11.162;2023-07-31T02:17:21;15.90;99.90
43810;DHT22;29440;48.208;11.162;2023-07-31T02:19:47;16.00;99.90
43810;DHT22;29440;48.208;11.162;2023-07-31T02:22:12;15.90;99.90
43810;DHT22;29440;48.208;11.162;2023-07-31T02:24:38;15.90;99.90
43810;DHT22;29440;48.208;11.162;2023-07-31T02:27:03;15.90;99.90
43810;DHT22;29440;48.208;11.162;2023-07-31T02:29:29;15.90;99.90
43810;DHT22;29440;48.208;11.162;2023-07-31T02:31:54;15.90;99.90
43810;DHT22;29440;48.208;11.162;2023-07-31T02:34:20;15.90;99.90
43810;DHT22;29440;48.208;11.162;2023-07-31T02:36:45;15.90;99.90
43810;DHT22;29440;48.208;11.162;2023-07-31T02:39:11;15.70;99.90
43810;DHT22;29440;48.208;11.162;2023-07-31T02:41:37;15.70;99.90
43810;DHT22;29440;48.208;11.162;2023-07-31T02:44:02;15.70;99.90
43810;DHT22;29440;48.208;11.162;2023-07-31T02:46:28;15.60;99.90
43810;DHT22;29440;48.208;11.162;2023-07-31T02:48:53;15.50;99.90
43810;DHT22;29440;48.208;11.162;2023-07-31T02:51:19;15.40;99.90
43810;DHT22;29440;48.208;11.162;2023-07-31T02:53:47;15.40;99.90
43810;DHT22;29440;48.208;11.162;2023-07-31T02:56:13;15.40;99.90
43810;DHT22;29440;48.208;11.162;2023-07-31T02:58:38;15.40;99.90
43810;DHT22;29440;48.208;11.162;2023-07-31T03:01:04;15.30;99.90
43810;DHT22;29440;48.208;11.162;2023-07-31T03:03:30;15.30;99.90
43810;DHT22;29440;48.208;11.162;2023-07-31T03:05:55;15.20;99.90
43810;DHT22;29440;48.208;11.162;2023-07-31T03:08:21;15.20;99.90
43810;DHT22;29440;48.208;11.162;2023-07-31T03:10:46;15.20;99.90
43810;DHT22;29440;48.208;11.162;2023-07-31T03:13:12;15.20;99.90
43810;DHT22;29440;48.208;11.162;2023-07-31T03:15:37;15.20;99.90
43810;DHT22;29440;48.208;11.162;2023-07-31T03:18:03;15.10;99.90
43810;DHT22;29440;48.208;11.162;2023-07-31T03:20:28;15.10;99.90
43810;DHT22;29440;48.208;11.162;2023-07-31T03:22:54;15.00;99.90
43810;DHT22;29440;48.208;11.162;2023-07-31T03:25:20;15.00;99.90
43810;DHT22;29440;48.208;11.162;2023-07-31T03:27:45;15.00;99.90
43810;DHT22;29440;48.208;11.162;2023-07-31T03:30:11;15.00;99.90
43810;DHT22;29440;48.208;11.162;2023-07-31T03:32:36;15.00;99.90
43810;DHT22;29440;48.208;11.162;2023-07-31T03:35:02;15.00;99.90
43810;DHT22;29440;48.208;11.162;2023-07-31T03:37:27;15.00;99.90
43810;DHT22;29440;48.208;11.162;2023-07-31T03:39:54;15.00;99.90
43810;DHT22;29440;48.208;11.162;2023-07-31T03:42:20;15.00;99.90
43810;DHT22;29440;48.208;11.162;2023-07-31T03:44:45;15.00;99.90
43810;DHT22;29440;48.208;11.162;2023-07-31T03:47:11;15.00;99.90
43810;DHT22;29440;48.208;11.162;2023-07-31T03:49:36;15.00;99.90
43810;DHT22;29440;48.208;11.162;2023-07-31T03:52:02;15.00;99.90
43810;DHT22;29440;48.208;11.162;2023-07-31T03:54:27;15.00;99.90
43810;DHT22;29440;48.208;11.162;2023-07-31T03:56:53;15.00;99.90
43810;DHT22;29440;48.208;11.162;2023-07-31T03:59:19;15.00;99.90
43810;DHT22;29440;48.208;11.162;2023-07-31T04:01:44;15.10;99.90
43810;DHT22;29440;48.208;11.162;2023-07-31T04:04:10;15.10;99.90
43810;DHT22;29440;48.208;11.162;2023-07-31T04:06:35;14.90;99.90
43810;DHT22;29440;48.208;11.162;2023-07-31T04:09:02;15.00;99.90
43810;DHT22;29440;48.208;11.162;2023-07-31T04:11:28;15.00;99.90
43810;DHT22;29440;48.208;11.162;2023-07-31T04:13:53;15.00;99.90
43810;DHT22;29440;48.208;11.162;2023-07-31T04:16:19;15.00;99.90
43810;DHT22;29440;48.208;11.162;2023-07-31T04:18:44;15.00;99.90
43810;DHT22;29440;48.208;11.162;2023-07-31T04:21:10;15.00;99.90
43810;DHT22;29440;48.208;11.162;2023-07-31T04:23:36;15.00;99.90
43810;DHT22;29440;48.208;11.162;2023-07-31T04:26:01;15.00;99.90
43810;DHT22;29440;48.208;11.162;2023-07-31T04:28:27;15.00;99.90
43810;DHT22;29440;48.208;11.162;2023-07-31T04:30:52;15.00;99.90
43810;DHT22;29440;48.208;11.162;2023-07-31T04:33:18;15.00;99.90
43810;DHT22;29440;48.208;11.162;2023-07-31T04:35:50;15.10;99.90
43810;DHT22;29440;48.208;11.162;2023-07-31T04:38:25;15.10;99.90
43810;DHT22;29440;48.208;11.162;2023-07-31T04:40:51;15.10;99.90
43810;DHT22;29440;48.208;11.162;2023-07-31T04:43:17;15.20;99.90
43810;DHT22;29440;48.208;11.162;2023-07-31T04:45:45;15.20;99.90
43810;DHT22;29440;48.208;11.162;2023-07-31T04:48:12;15.20;99.90
43810;DHT22;29440;48.208;11.162;2023-07-31T04:50:38;15.20;99.90
43810;DHT22;29440;48.208;11.162;2023-07-31T04:53:03;15.20;99.90
43810;DHT22;29440;48.208;11.162;2023-07-31T04:55:29;15.30;99.90
43810;DHT22;29440;48.208;11.162;2023-07-31T04:57:54;15.50;99.90
43810;DHT22;29440;48.208;11.162;2023-07-31T05:00:20;15.50;99.90
43810;DHT22;29440;48.208;11.162;2023-07-31T05:02:46;15.70;99.90
43810;DHT22;29440;48.208;11.162;2023-07-31T05:05:15;15.80;99.90
43810;DHT22;29440;48.208;11.162;2023-07-31T05:07:41;15.90;99.90
43810;DHT22;29440;48.208;11.162;2023-07-31T05:10:06;16.00;99.90
43810;DHT22;29440;48.208;11.162;2023-07-31T05:12:32;16.10;99.90
43810;DHT22;29440;48.208;11.162;2023-07-31T05:14:58;16.30;99.90
43810;DHT22;29440;48.208;11.162;2023-07-31T05:17:23;16.50;99.90
43810;DHT22;29440;48.208;11.162;2023-07-31T05:19:49;16.70;99.90
43810;DHT22;29440;48.208;11.162;2023-07-31T05:22:14;16.80;99.90
43810;DHT22;29440;48.208;11.162;2023-07-31T05:24:40;16.90;99.90
43810;DHT22;29440;48.208;11.162;2023-07-31T05:27:06;17.00;99.90
43810;DHT22;29440;48.208;11.162;2023-07-31T05:29:31;17.10;99.90
43810;DHT22;29440;48.208;11.162;2023-07-31T05:31:57;17.10;99.90
43810;DHT22;29440;48.208;11.162;2023-07-31T05:34:22;17.20;99.90
43810;DHT22;29440;48.208;11.162;2023-07-31T05:36:48;17.30;99.90
43810;DHT22;29440;48.208;11.162;2023-07-31T05:39:13;17.30;99.90
43810;DHT22;29440;48.208;11.162;2023-07-31T05:41:39;17.40;99.90
43810;DHT22;29440;48.208;11.162;2023-07-31T05:44:05;17.50;99.90
43810;DHT22;29440;48.208;11.162;2023-07-31T05:46:30;17.70;99.90
43810;DHT22;29440;48.208;11.162;2023-07-31T05:48:56;17.80;99.90
43810;DHT22;29440;48.208;11.162;2023-07-31T05:51:22;18.10;99.90
43810;DHT22;29440;48.208;11.162;2023-07-31T05:53:47;18.20;99.90
43810;DHT22;29440;48.208;11.162;2023-07-31T05:56:13;18.50;99.90
43810;DHT22;29440;48.208;11.162;2023-07-31T05:58:38;18.70;99.90
43810;DHT22;29440;48.208;11.162;2023-07-31T06:01:04;18.70;99.90
43810;DHT22;29440;48.208;11.162;2023-07-31T06:03:29;18.60;99.90
43810;DHT22;29440;48.208;11.162;2023-07-31T06:05:55;18.50;99.90
43810;DHT22;29440;48.208;11.162;2023-07-31T06:08:21;18.50;99.90
43810;DHT22;29440;48.208;11.162;2023-07-31T06:10:47;18.50;99.90
43810;DHT22;29440;48.208;11.162;2023-07-31T06:13:12;18.50;99.90
43810;DHT22;29440;48.208;11.162;2023-07-31T06:15:38;18.40;99.90
43810;DHT22;29440;48.208;11.162;2023-07-31T06:18:03;18.40;99.90
43810;DHT22;29440;48.208;11.162;2023-07-31T06:20:31;18.40;99.90
43810;DHT22;29440;48.208;11.162;2023-07-31T06:22:56;18.40;99.90
43810;DHT22;29440;48.208;11.162;2023-07-31T06:25:22;18.30;99.90
43810;DHT22;29440;48.208;11.162;2023-07-31T06:27:48;18.40;99.90
43810;DHT22;29440;48.208;11.162;2023-07-31T06:30:13;18.40;99.90
43810;DHT22;29440;48.208;11.162;2023-07-31T06:32:39;18.40;99.90
43810;DHT22;29440;48.208;11.162;2023-07-31T06:35:06;18.40;99.90
43810;DHT22;29440;48.208;11.162;2023-07-31T06:37:32;18.40;99.90
43810;DHT22;29440;48.208;11.162;2023-07-31T06:39:57;18.40;99.90
43810;DHT22;29440;48.208;11.162;2023-07-31T06:42:23;18.30;99.90
43810;DHT22;29440;48.208;11.162;2023-07-31T06:44:49;18.40;99.90
43810;DHT22;29440;48.208;11.162;2023-07-31T06:47:15;18.50;99.90
43810;DHT22;29440;48.208;11.162;2023-07-31T06:49:40;18.60;99.90
43810;DHT22;29440;48.208;11.162;2023-07-31T06:52:06;18.70;99.90
43810;DHT22;29440;48.208;11.162;2023-07-31T06:54:32;18.80;99.90
43810;DHT22;29440;48.208;11.162;2023-07-31T06:56:57;19.00;99.90
43810;DHT22;29440;48.208;11.162;2023-07-31T06:59:23;19.20;99.90
43810;DHT22;29440;48.208;11.162;2023-07-31T07:01:48;19.70;99.90
43810;DHT22;29440;48.208;11.162;2023-07-31T07:04:14;20.10;99.90
43810;DHT22;29440;48.208;11.162;2023-07-31T07:06:40;20.60;99.90
43810;DHT22;29440;48.208;11.162;2023-07-31T07:09:05;21.20;99.90
43810;DHT22;29440;48.208;11.162;2023-07-31T07:11:32;21.90;99.90
43810;DHT22;29440;48.208;11.162;2023-07-31T07:13:57;22.00;99.90
43810;DHT22;29440;48.208;11.162;2023-07-31T07:16:23;22.20;99.90
43810;DHT22;29440;48.208;11.162;2023-07-31T07:18:48;22.20;99.90
43810;DHT22;29440;48.208;11.162;2023-07-31T07:21:14;22.00;99.90
43810;DHT22;29440;48.208;11.162;2023-07-31T07:23:42;21.90;99.90
43810;DHT22;29440;48.208;11.162;2023-07-31T07:26:08;21.60;99.90
43810;DHT22;29440;48.208;11.162;2023-07-31T07:28:35;21.50;99.90
43810;DHT22;29440;48.208;11.162;2023-07-31T07:31:02;21.40;99.90
43810;DHT22;29440;48.208;11.162;2023-07-31T07:33:28;21.30;99.90
43810;DHT22;29440;48.208;11.162;2023-07-31T07:35:54;21.20;99.90
43810;DHT22;29440;48.208;11.162;2023-07-31T07:38:19;21.30;99.90
43810;DHT22;29440;48.208;11.162;2023-07-31T07:40:45;21.30;99.90
43810;DHT22;29440;48.208;11.162;2023-07-31T07:43:12;21.40;99.90
43810;DHT22;29440;48.208;11.162;2023-07-31T07:45:37;21.50;99.90
43810;DHT22;29440;48.208;11.162;2023-07-31T07:48:03;21.70;99.90
43810;DHT22;29440;48.208;11.162;2023-07-31T07:50:29;22.00;99.90
43810;DHT22;29440;48.208;11.162;2023-07-31T07:52:54;22.40;99.90
43810;DHT22;29440;48.208;11.162;2023-07-31T07:55:20;22.70;99.90
43810;DHT22;29440;48.208;11.162;2023-07-31T07:57:55;23.00;99.90
43810;DHT22;29440;48.208;11.162;2023-07-31T08:00:21;23.40;99.90
43810;DHT22;29440;48.208;11.162;2023-07-31T08:02:46;23.70;99.90
43810;DHT22;29440;48.208;11.162;2023-07-31T08:05:16;23.80;99.90
43810;DHT22;29440;48.208;11.162;2023-07-31T08:07:43;23.70;99.90
43810;DHT22;29440;48.208;11.162;2023-07-31T08:10:09;23.50;98.50
43810;DHT22;29440;48.208;11.162;2023-07-31T08:12:35;23.20;99.40
43810;DHT22;29440;48.208;11.162;2023-07-31T08:15:04;22.90;98.40
43810;DHT22;29440;48.208;11.162;2023-07-31T08:17:30;22.60;97.80
43810;DHT22;29440;48.208;11.162;2023-07-31T08:19:55;22.30;99.20
43810;DHT22;29440;48.208;11.162;2023-07-31T08:22:23;22.00;99.00
43810;DHT22;29440;48.208;11.162;2023-07-31T08:24:49;21.70;99.60
43810;DHT22;29440;48.208;11.162;2023-07-31T08:27:14;21.50;99.90
43810;DHT22;29440;48.208;11.162;2023-07-31T08:29:40;21.30;99.90
43810;DHT22;29440;48.208;11.162;2023-07-31T08:32:06;21.20;99.90
43810;DHT22;29440;48.208;11.162;2023-07-31T08:34:31;21.00;99.90
43810;DHT22;29440;48.208;11.162;2023-07-31T08:36:57;20.90;99.90
43810;DHT22;29440;48.208;11.162;2023-07-31T08:39:23;20.80;99.90
43810;DHT22;29440;48.208;11.162;2023-07-31T08:41:49;20.70;99.90
43810;DHT22;29440;48.208;11.162;2023-07-31T08:44:15;20.70;99.90
43810;DHT22;29440;48.208;11.162;2023-07-31T08:46:42;20.70;99.90
43810;DHT22;29440;48.208;11.162;2023-07-31T08:49:08;20.70;99.90
43810;DHT22;29440;48.208;11.162;2023-07-31T08:51:35;20.60;99.90
43810;DHT22;29440;48.208;11.162;2023-07-31T08:54:01;20.80;99.90
43810;DHT22;29440;48.208;11.162;2023-07-31T08:56:29;20.90;99.90
43810;DHT22;29440;48.208;11.162;2023-07-31T08:59:00;21.00;99.90
43810;DHT22;29440;48.208;11.162;2023-07-31T09:01:29;21.00;99.90
43810;DHT22;29440;48.208;11.162;2023-07-31T09:03:55;21.10;99.90
43810;DHT22;29440;48.208;11.162;2023-07-31T09:06:23;21.20;99.90
43810;DHT22;29440;48.208;11.162;2023-07-31T09:08:51;21.20;99.90
43810;DHT22;29440;48.208;11.162;2023-07-31T09:11:18;21.20;99.90
43810;DHT22;29440;48.208;11.162;2023-07-31T09:13:45;21.30;99.90
43810;DHT22;29440;48.208;11.162;2023-07-31T09:16:11;21.30;99.90
43810;DHT22;29440;48.208;11.162;2023-07-31T09:18:55;21.40;99.90
43810;DHT22;29440;48.208;11.162;2023-07-31T09:21:22;21.40;99.90
43810;DHT22;29440;48.208;11.162;2023-07-31T09:23:49;21.60;99.90
43810;DHT22;29440;48.208;11.162;2023-07-31T09:28:56;21.80;99.90
43810;DHT22;29440;48.208;11.162;2023-07-31T09:34:04;22.20;99.90
43810;DHT22;29440;48.208;11.162;2023-07-31T09:36:29;22.40;99.90
43810;DHT22;29440;48.208;11.162;2023-07-31T09:39:02;22.60;99.60
43810;DHT22;29440;48.208;11.162;2023-07-31T09:41:28;22.70;99.80
43810;DHT22;29440;48.208;11.162;2023-07-31T09:43:54;22.80;99.90
43810;DHT22;29440;48.208;11.162;2023-07-31T09:46:20;22.90;99.70
43810;DHT22;29440;48.208;11.162;2023-07-31T09:48:47;23.00;98.50
43810;DHT22;29440;48.208;11.162;2023-07-31T09:51:12;23.00;98.90
43810;DHT22;29440;48.208;11.162;2023-07-31T09:53:38;23.00;98.90
43810;DHT22;29440;48.208;11.162;2023-07-31T09:56:04;23.20;99.90
43810;DHT22;29440;48.208;11.162;2023-07-31T09:58:34;23.10;98.00
43810;DHT22;29440;48.208;11.162;2023-07-31T10:01:02;23.10;99.20
43810;DHT22;29440;48.208;11.162;2023-07-31T10:03:29;23.10;97.60
43810;DHT22;29440;48.208;11.162;2023-07-31T10:05:57;23.30;98.20
43810;DHT22;29440;48.208;11.162;2023-07-31T10:08:28;23.20;97.80
43810;DHT22;29440;48.208;11.162;2023-07-31T10:10:58;23.20;98.20
43810;DHT22;29440;48.208;11.162;2023-07-31T10:13:24;23.30;98.70
43810;DHT22;29440;48.208;11.162;2023-07-31T10:15:50;23.30;97.70
43810;DHT22;29440;48.208;11.162;2023-07-31T10:18:17;23.30;97.90
43810;DHT22;29440;48.208;11.162;2023-07-31T10:20:44;23.40;98.50
43810;DHT22;29440;48.208;11.162;2023-07-31T10:23:12;23.40;97.00
43810;DHT22;29440;48.208;11.162;2023-07-31T10:28:33;23.50;97.40
43810;DHT22;29440;48.208;11.162;2023-07-31T10:31:01;23.50;97.60
43810;DHT22;29440;48.208;11.162;2023-07-31T10:33:27;23.50;98.00
43810;DHT22;29440;48.208;11.162;2023-07-31T10:36:12;23.60;97.70
43810;DHT22;29440;48.208;11.162;2023-07-31T10:38:38;23.50;96.90
43810;DHT22;29440;48.208;11.162;2023-07-31T10:41:34;23.60;97.40
43810;DHT22;29440;48.208;11.162;2023-07-31T10:44:01;23.70;98.30
43810;DHT22;29440;48.208;11.162;2023-07-31T10:49:32;23.70;96.90
43810;DHT22;29440;48.208;11.162;2023-07-31T10:51:57;23.80;98.00
43810;DHT22;29440;48.208;11.162;2023-07-31T10:54:23;23.70;95.90
43810;DHT22;29440;48.208;11.162;2023-07-31T10:56:51;23.80;96.40
43810;DHT22;29440;48.208;11.162;2023-07-31T10:59:18;23.90;96.40
43810;DHT22;29440;48.208;11.162;2023-07-31T11:01:53;23.90;96.70
43810;DHT22;29440;48.208;11.162;2023-07-31T11:04:23;23.90;97.00
43810;DHT22;29440;48.208;11.162;2023-07-31T11:07:01;23.90;96.80
43810;DHT22;29440;48.208;11.162;2023-07-31T11:09:29;24.00;97.40
43810;DHT22;29440;48.208;11.162;2023-07-31T11:11:55;23.90;97.20
43810;DHT22;29440;48.208;11.162;2023-07-31T11:14:21;23.90;97.00
43810;DHT22;29440;48.208;11.162;2023-07-31T11:16:50;24.10;97.50
43810;DHT22;29440;48.208;11.162;2023-07-31T11:19:22;24.10;96.90
43810;DHT22;29440;48.208;11.162;2023-07-31T11:21:49;24.10;96.60
43810;DHT22;29440;48.208;11.162;2023-07-31T11:24:14;24.20;96.40
43810;DHT22;29440;48.208;11.162;2023-07-31T11:26:51;24.20;97.10
43810;DHT22;29440;48.208;11.162;2023-07-31T11:29:18;24.20;96.70
43810;DHT22;29440;48.208;11.162;2023-07-31T11:31:44;24.20;96.40
43810;DHT22;29440;48.208;11.162;2023-07-31T11:34:11;24.20;95.60
43810;DHT22;29440;48.208;11.162;2023-07-31T11:36:37;24.30;96.10
43810;DHT22;29440;48.208;11.162;2023-07-31T11:39:07;24.20;96.20
43810;DHT22;29440;48.208;11.162;2023-07-31T11:41:32;24.20;96.60
43810;DHT22;29440;48.208;11.162;2023-07-31T11:44:01;24.20;96.90
43810;DHT22;29440;48.208;11.162;2023-07-31T11:46:30;24.20;96.30
43810;DHT22;29440;48.208;11.162;2023-07-31T11:48:59;24.20;96.50
43810;DHT22;29440;48.208;11.162;2023-07-31T11:51:25;24.10;95.50
43810;DHT22;29440;48.208;11.162;2023-07-31T11:53:54;24.20;95.90
43810;DHT22;29440;48.208;11.162;2023-07-31T11:56:21;24.30;96.90
43810;DHT22;29440;48.208;11.162;2023-07-31T11:58:55;24.30;96.60
43810;DHT22;29440;48.208;11.162;2023-07-31T12:01:22;24.50;96.30
43810;DHT22;29440;48.208;11.162;2023-07-31T12:03:51;24.50;96.40
43810;DHT22;29440;48.208;11.162;2023-07-31T12:06:42;24.50;95.70
43810;DHT22;29440;48.208;11.162;2023-07-31T12:09:09;24.60;95.00
43810;DHT22;29440;48.208;11.162;2023-07-31T12:11:44;24.70;95.80
43810;DHT22;29440;48.208;11.162;2023-07-31T12:14:28;24.80;95.20
43810;DHT22;29440;48.208;11.162;2023-07-31T12:16:55;24.90;95.10
43810;DHT22;29440;48.208;11.162;2023-07-31T12:19:22;25.10;95.00
43810;DHT22;29440;48.208;11.162;2023-07-31T12:21:48;25.10;93.80
43810;DHT22;29440;48.208;11.162;2023-07-31T12:24:13;25.20;94.60
43810;DHT22;29440;48.208;11.162;2023-07-31T12:26:39;25.40;94.90
43810;DHT22;29440;48.208;11.162;2023-07-31T12:29:07;25.40;94.00
43810;DHT22;29440;48.208;11.162;2023-07-31T12:31:34;25.40;94.30
43810;DHT22;29440;48.208;11.162;2023-07-31T12:34:00;25.30;92.60
43810;DHT22;29440;48.208;11.162;2023-07-31T12:36:26;25.30;93.70
43810;DHT22;29440;48.208;11.162;2023-07-31T12:38:54;25.30;93.60
43810;DHT22;29440;48.208;11.162;2023-07-31T12:41:21;25.20;93.40
43810;DHT22;29440;48.208;11.162;2023-07-31T12:43:54;25.30;93.90
43810;DHT22;29440;48.208;11.162;2023-07-31T12:46:20;25.30;93.50
43810;DHT22;29440;48.208;11.162;2023-07-31T12:48:48;25.30;93.90
43810;DHT22;29440;48.208;11.162;2023-07-31T12:51:20;25.30;94.20
43810;DHT22;29440;48.208;11.162;2023-07-31T12:53:46;25.30;93.90
43810;DHT22;29440;48.208;11.162;2023-07-31T12:56:12;25.20;93.80
43810;DHT22;29440;48.208;11.162;2023-07-31T12:58:37;25.20;93.90
43810;DHT22;29440;48.208;11.162;2023-07-31T13:01:03;25.10;93.40
43810;DHT22;29440;48.208;11.162;2023-07-31T13:03:28;25.00;94.20
43810;DHT22;29440;48.208;11.162;2023-07-31T13:05:55;25.00;93.90
43810;DHT22;29440;48.208;11.162;2023-07-31T13:08:21;24.80;93.70
43810;DHT22;29440;48.208;11.162;2023-07-31T13:11:05;24.80;94.70
43810;DHT22;29440;48.208;11.162;2023-07-31T13:13:32;24.70;93.90
43810;DHT22;29440;48.208;11.162;2023-07-31T13:15:58;24.80;94.20
43810;DHT22;29440;48.208;11.162;2023-07-31T13:18:23;24.70;93.80
43810;DHT22;29440;48.208;11.162;2023-07-31T13:20:49;24.70;94.10
43810;DHT22;29440;48.208;11.162;2023-07-31T13:23:14;24.60;94.00
43810;DHT22;29440;48.208;11.162;2023-07-31T13:25:40;24.60;94.30
43810;DHT22;29440;48.208;11.162;2023-07-31T13:28:06;24.60;94.90
43810;DHT22;29440;48.208;11.162;2023-07-31T13:30:31;24.60;94.10
43810;DHT22;29440;48.208;11.162;2023-07-31T13:32:57;24.60;94.20
43810;DHT22;29440;48.208;11.162;2023-07-31T13:35:32;24.50;94.60
43810;DHT22;29440;48.208;11.162;2023-07-31T13:37:57;24.60;94.20
43810;DHT22;29440;48.208;11.162;2023-07-31T13:40:23;24.60;94.40
43810;DHT22;29440;48.208;11.162;2023-07-31T13:42:48;24.60;94.50
43810;DHT22;29440;48.208;11.162;2023-07-31T13:45:14;24.60;94.20
43810;DHT22;29440;48.208;11.162;2023-07-31T13:47:49;24.50;94.00
43810;DHT22;29440;48.208;11.162;2023-07-31T13:50:15;24.50;95.20
43810;DHT22;29440;48.208;11.162;2023-07-31T13:52:42;24.60;95.40
43810;DHT22;29440;48.208;11.162;2023-07-31T13:55:07;24.60;94.50
43810;DHT22;29440;48.208;11.162;2023-07-31T13:57:33;24.60;94.20
43810;DHT22;29440;48.208;11.162;2023-07-31T13:59:59;24.70;95.30
43810;DHT22;29440;48.208;11.162;2023-07-31T14:02:24;24.80;95.10
43810;DHT22;29440;48.208;11.162;2023-07-31T14:04:50;24.90;94.80
43810;DHT22;29440;48.208;11.162;2023-07-31T14:07:20;24.90;94.60
43810;DHT22;29440;48.208;11.162;2023-07-31T14:09:45;24.90;94.30
43810;DHT22;29440;48.208;11.162;2023-07-31T14:12:11;24.80;94.90
43810;DHT22;29440;48.208;11.162;2023-07-31T14:14:36;24.90;94.80
43810;DHT22;29440;48.208;11.162;2023-07-31T14:17:02;25.00;94.10
43810;DHT22;29440;48.208;11.162;2023-07-31T14:19:28;24.90;94.20
43810;DHT22;29440;48.208;11.162;2023-07-31T14:21:53;25.10;94.40
43810;DHT22;29440;48.208;11.162;2023-07-31T14:24:19;25.10;94.50
43810;DHT22;29440;48.208;11.162;2023-07-31T14:26:44;25.20;95.00
43810;DHT22;29440;48.208;11.162;2023-07-31T14:29:10;25.50;93.60
43810;DHT22;29440;48.208;11.162;2023-07-31T14:31:35;25.60;92.20
43810;DHT22;29440;48.208;11.162;2023-07-31T14:34:01;25.60;92.90
43810;DHT22;29440;48.208;11.162;2023-07-31T14:36:27;25.50;92.60
43810;DHT22;29440;48.208;11.162;2023-07-31T14:38:52;25.50;92.60
43810;DHT22;29440;48.208;11.162;2023-07-31T14:41:18;25.50;92.60
43810;DHT22;29440;48.208;11.162;2023-07-31T14:43:43;25.40;93.10
43810;DHT22;29440;48.208;11.162;2023-07-31T14:46:09;25.30;92.90
43810;DHT22;29440;48.208;11.162;2023-07-31T14:48:35;25.20;93.00
43810;DHT22;29440;48.208;11.162;2023-07-31T14:51:01;25.10;93.80
43810;DHT22;29440;48.208;11.162;2023-07-31T14:53:27;25.00;94.20
43810;DHT22;29440;48.208;11.162;2023-07-31T14:55:52;25.00;94.40
43810;DHT22;29440;48.208;11.162;2023-07-31T14:58:18;24.80;94.50
43810;DHT22;29440;48.208;11.162;2023-07-31T15:00:44;24.70;94.80
43810;DHT22;29440;48.208;11.162;2023-07-31T15:03:09;24.60;94.80
43810;DHT22;29440;48.208;11.162;2023-07-31T15:05:57;24.50;94.50
43810;DHT22;29440;48.208;11.162;2023-07-31T15:08:22;24.30;93.90
43810;DHT22;29440;48.208;11.162;2023-07-31T15:10:49;24.20;94.50
43810;DHT22;29440;48.208;11.162;2023-07-31T15:13:14;24.00;94.80
43810;DHT22;29440;48.208;11.162;2023-07-31T15:15:40;23.90;94.90
43810;DHT22;29440;48.208;11.162;2023-07-31T15:18:05;23.80;94.90
43810;DHT22;29440;48.208;11.162;2023-07-31T15:20:31;23.80;95.70
43810;DHT22;29440;48.208;11.162;2023-07-31T15:22:57;23.60;95.90
43810;DHT22;29440;48.208;11.162;2023-07-31T15:25:23;23.60;96.40
43810;DHT22;29440;48.208;11.162;2023-07-31T15:27:49;23.60;96.60